createdAt,value
2022-11-03T00:03:22.383Z,8.35
2022-11-03T00:07:36.028Z,8.98
2022-11-03T00:11:51.705Z,9.80
2022-11-03T00:16:06.040Z,11.17
2022-11-03T00:20:21.094Z,8.15
2022-11-03T00:24:34.798Z,8.65
2022-11-03T00:28:50.737Z,7.00
2022-11-03T00:33:04.932Z,9.55
2022-11-03T00:37:20.182Z,11.38
2022-11-03T00:41:37.942Z,10.33
2022-11-03T00:45:51.869Z,13.70
2022-11-03T00:50:06.230Z,11.55
2022-11-03T00:54:21.300Z,10.68
2022-11-03T00:58:35.191Z,9.77
2022-11-03T01:02:48.847Z,12.70
2022-11-03T01:07:03.106Z,13.43
2022-11-03T01:11:38.124Z,12.03
2022-11-03T01:15:51.825Z,8.82
2022-11-03T01:20:06.226Z,8.25
2022-11-03T01:24:20.055Z,14.27
2022-11-03T01:28:36.640Z,9.05
2022-11-03T01:32:50.320Z,10.20
2022-11-03T01:37:04.450Z,10.10
2022-11-03T01:41:20.745Z,7.10
2022-11-03T01:45:35.890Z,7.28
2022-11-03T01:49:53.448Z,9.40
2022-11-03T01:54:10.973Z,6.53
2022-11-03T01:58:29.127Z,8.18
2022-11-03T02:02:44.993Z,8.98
2022-11-03T02:07:08.147Z,8.20
2022-11-03T02:11:39.321Z,8.20
2022-11-03T02:15:56.425Z,9.20
2022-11-03T02:20:14.727Z,8.82
2022-11-03T02:24:37.338Z,7.83
2022-11-03T02:33:16.893Z,8.73
2022-11-03T02:37:32.981Z,9.13
2022-11-03T02:41:49.462Z,10.57
2022-11-03T02:46:06.980Z,12.25
2022-11-03T02:50:22.312Z,9.57
2022-11-03T02:54:40.197Z,10.85
2022-11-03T02:59:00.477Z,6.03
2022-11-03T03:03:20.233Z,9.77
2022-11-03T03:07:37.201Z,10.20
2022-11-03T03:11:54.830Z,9.52
2022-11-03T03:16:13.545Z,12.18
2022-11-03T03:20:34.469Z,11.70
2022-11-03T03:24:54.379Z,11.13
2022-11-03T03:29:15.141Z,11.88
2022-11-03T03:33:29.554Z,10.13
2022-11-03T03:37:48.268Z,13.75
2022-11-03T03:42:03.929Z,13.60
2022-11-03T03:46:19.569Z,8.32
2022-11-03T03:50:36.623Z,5.77
2022-11-03T03:54:52.058Z,9.13
2022-11-03T03:59:05.706Z,8.30
2022-11-03T04:03:20.690Z,9.40
2022-11-03T04:07:49.541Z,6.55
2022-11-03T04:12:24.716Z,5.35
2022-11-03T04:16:56.517Z,5.50
2022-11-03T04:21:31.268Z,6.20
2022-11-03T04:25:49.703Z,8.80
2022-11-03T04:30:17.140Z,8.13
2022-11-03T04:34:30.773Z,7.13
2022-11-03T04:38:45.540Z,6.95
2022-11-03T04:43:00.488Z,9.27
2022-11-03T04:47:18.174Z,7.23
2022-11-03T04:51:35.913Z,10.50
2022-11-03T04:55:53.724Z,4.90
2022-11-03T05:00:14.050Z,9.53
2022-11-03T05:04:29.188Z,9.70
2022-11-03T05:08:44.111Z,9.13
2022-11-03T05:12:58.669Z,12.68
2022-11-03T05:17:23.775Z,9.47
2022-11-03T05:21:38.866Z,9.07
2022-11-03T05:25:54.935Z,10.02
2022-11-03T05:30:16.152Z,9.73
2022-11-03T05:34:38.719Z,6.82
2022-11-03T05:38:57.340Z,6.57
2022-11-03T05:43:14.807Z,13.07
2022-11-03T05:47:33.682Z,8.52
2022-11-03T05:51:47.693Z,7.03
2022-11-03T05:56:05.503Z,8.63
2022-11-03T06:00:29.913Z,8.33
2022-11-03T06:04:43.647Z,10.32
2022-11-03T06:08:57.994Z,7.43
2022-11-03T06:13:19.854Z,8.40
2022-11-03T06:17:33.500Z,9.07
2022-11-03T06:21:48.426Z,7.28
2022-11-03T06:26:04.370Z,8.23
2022-11-03T06:30:27.147Z,9.35
2022-11-03T06:34:44.614Z,6.40
2022-11-03T06:39:01.448Z,12.00
2022-11-03T06:43:21.748Z,9.33
2022-11-03T06:47:36.774Z,8.57
2022-11-03T06:51:50.444Z,9.55
2022-11-03T06:56:04.331Z,8.80
2022-11-03T07:00:40.411Z,8.75
2022-11-03T07:04:56.237Z,7.88
2022-11-03T07:09:16.266Z,5.43
2022-11-03T07:13:33.008Z,9.32
2022-11-03T07:17:46.653Z,9.70
2022-11-03T07:22:03.698Z,10.27
2022-11-03T07:26:17.320Z,8.67
2022-11-03T07:30:34.376Z,6.15
2022-11-03T07:34:49.920Z,5.72
2022-11-03T07:39:05.084Z,9.27
2022-11-03T07:43:21.248Z,9.68
2022-11-03T07:47:34.947Z,7.63
2022-11-03T07:51:52.001Z,10.53
2022-11-03T07:56:17.537Z,7.70
2022-11-03T08:00:32.132Z,7.57
2022-11-03T08:04:46.030Z,5.93
2022-11-03T08:09:02.255Z,6.53
2022-11-03T08:13:17.295Z,6.47
2022-11-03T08:17:30.976Z,5.90
2022-11-03T08:21:44.659Z,6.43
2022-11-03T08:25:58.465Z,8.43
2022-11-03T08:30:14.675Z,7.60
2022-11-03T08:34:28.410Z,5.83
2022-11-03T08:38:42.151Z,11.20
2022-11-03T08:42:55.914Z,9.30
2022-11-03T08:47:11.114Z,8.90
2022-11-03T08:51:25.032Z,7.53
2022-11-03T08:55:38.689Z,9.43
2022-11-03T08:59:53.109Z,6.75
2022-11-03T09:04:08.686Z,8.53
2022-11-03T09:12:56.701Z,7.13
2022-11-03T09:17:10.505Z,7.67
2022-11-03T09:21:25.633Z,13.23
2022-11-03T09:25:39.439Z,7.22
2022-11-03T09:30:12.191Z,8.40
2022-11-03T09:34:26.934Z,6.23
2022-11-03T09:38:43.391Z,7.63
2022-11-03T09:42:58.075Z,7.63
2022-11-03T09:47:20.396Z,6.87
2022-11-03T09:51:36.035Z,6.47
2022-11-03T09:55:51.256Z,9.40
2022-11-03T10:00:08.979Z,3.77
2022-11-03T10:04:28.322Z,4.20
2022-11-03T10:08:42.561Z,6.82
2022-11-03T10:12:57.842Z,8.13
2022-11-03T10:17:17.792Z,6.40
2022-11-03T10:21:34.128Z,7.22
2022-11-03T10:25:47.898Z,6.50
2022-11-03T10:30:09.813Z,6.53
2022-11-03T10:34:33.004Z,6.95
2022-11-03T10:38:47.314Z,7.47
2022-11-03T10:43:01.078Z,6.07
2022-11-03T10:47:26.607Z,7.35
2022-11-03T10:51:40.407Z,5.03
2022-11-03T10:55:55.653Z,7.97
2022-11-03T11:00:16.085Z,7.47
2022-11-03T11:04:33.972Z,9.80
2022-11-03T11:08:47.998Z,7.32
2022-11-03T11:13:31.115Z,7.73
2022-11-03T11:17:47.322Z,6.45
2022-11-03T11:22:15.043Z,6.57
2022-11-03T11:26:37.377Z,6.97
2022-11-03T11:31:00.220Z,9.20
2022-11-03T11:35:19.083Z,7.20
2022-11-03T11:39:46.337Z,8.63
2022-11-03T11:44:46.842Z,6.03
2022-11-03T11:49:17.439Z,6.72
2022-11-03T11:53:35.051Z,7.88
2022-11-03T11:57:50.156Z,7.47
2022-11-03T12:02:04.714Z,7.95
2022-11-03T12:06:18.480Z,7.82
2022-11-03T12:10:32.779Z,5.40
2022-11-03T12:14:47.865Z,7.78
2022-11-03T12:19:42.573Z,7.60
2022-11-03T12:23:56.232Z,5.57
2022-11-03T12:28:10.266Z,6.27
2022-11-03T12:32:34.085Z,6.45
2022-11-03T12:36:53.175Z,9.43
2022-11-03T12:41:25.384Z,7.87
2022-11-03T12:45:39.061Z,8.40
2022-11-03T12:49:54.433Z,7.68
2022-11-03T12:54:08.144Z,7.77
2022-11-03T12:58:21.867Z,8.48
2022-11-03T13:02:35.877Z,7.15
2022-11-03T13:06:51.110Z,8.38
2022-11-03T13:11:25.311Z,7.27
2022-11-03T13:15:39.281Z,5.25
2022-11-03T13:19:54.730Z,7.10
2022-11-03T13:24:10.264Z,7.13
2022-11-03T13:28:24.071Z,7.40
2022-11-03T13:32:37.760Z,9.45
2022-11-03T13:36:51.427Z,10.30
2022-11-03T13:41:09.090Z,7.70
2022-11-03T13:45:23.843Z,8.25
2022-11-03T13:50:08.214Z,8.10
2022-11-03T14:07:53.703Z,7.87
2022-11-03T14:12:25.418Z,11.13
2022-11-03T14:16:40.605Z,11.95
2022-11-03T14:20:54.442Z,7.63
2022-11-03T14:25:09.684Z,9.15
2022-11-03T14:29:23.563Z,8.20
2022-11-03T14:33:38.686Z,11.27
2022-11-03T14:37:52.377Z,9.57
2022-11-03T14:42:06.783Z,8.38
2022-11-03T14:46:20.459Z,6.60
2022-11-03T14:50:35.608Z,9.90
2022-11-03T14:54:49.662Z,8.98
2022-11-03T14:59:03.343Z,7.38
2022-11-03T15:03:17.319Z,8.93
2022-11-03T15:07:32.966Z,8.70
2022-11-03T15:11:47.575Z,7.97
2022-11-03T15:16:01.533Z,10.13
2022-11-03T15:20:15.746Z,8.17
2022-11-03T15:29:04.437Z,7.22
2022-11-03T15:33:18.194Z,6.53
2022-11-03T15:37:31.899Z,8.68
2022-11-03T15:41:46.926Z,8.65
2022-11-03T15:46:00.587Z,7.47
2022-11-03T15:50:15.741Z,10.23
2022-11-03T15:54:29.465Z,5.10
2022-11-03T15:58:44.515Z,8.48
2022-11-03T16:02:58.296Z,8.07
2022-11-03T16:07:12.397Z,8.02
2022-11-03T16:11:26.125Z,7.18
2022-11-03T16:15:41.212Z,9.10
2022-11-03T16:19:54.857Z,8.63
2022-11-03T16:24:09.198Z,10.25
2022-11-03T16:28:23.295Z,8.43
2022-11-03T16:32:38.358Z,8.90
2022-11-03T16:36:52.317Z,11.40
2022-11-03T16:41:06.316Z,13.90
2022-11-03T16:45:26.557Z,11.87
2022-11-03T16:49:41.878Z,10.85
2022-11-03T16:53:57.250Z,9.80
2022-11-03T16:58:10.955Z,9.00
2022-11-03T17:02:25.096Z,10.38
2022-11-03T17:06:40.246Z,8.90
2022-11-03T17:10:53.902Z,9.13
2022-11-03T17:15:08.392Z,13.68
2022-11-03T17:19:22.094Z,11.75
2022-11-03T17:23:37.138Z,13.00
2022-11-03T17:27:52.849Z,15.87
2022-11-03T17:32:12.345Z,9.95
2022-11-03T17:36:26.029Z,14.00
2022-11-03T17:40:41.949Z,13.27
2022-11-03T17:44:56.896Z,11.43
2022-11-03T17:49:10.602Z,11.57
2022-11-03T17:53:26.382Z,14.10
2022-11-03T17:57:41.515Z,13.93
2022-11-03T18:01:55.750Z,13.00
2022-11-03T18:06:19.120Z,16.48
2022-11-03T18:10:35.355Z,12.27
2022-11-03T18:14:50.372Z,10.05
2022-11-03T18:19:04.464Z,13.07
2022-11-03T18:23:19.927Z,15.60
2022-11-03T18:27:33.624Z,13.82
2022-11-03T18:31:50.776Z,10.65
2022-11-03T18:36:07.358Z,14.47
2022-11-03T18:40:21.409Z,13.10
2022-11-03T18:44:35.764Z,14.00
2022-11-03T18:48:50.828Z,15.25
2022-11-03T18:53:04.713Z,12.63
2022-11-03T18:57:25.739Z,14.75
2022-11-03T19:01:39.613Z,10.95
2022-11-03T19:05:55.007Z,11.77
2022-11-03T19:10:11.930Z,12.70
2022-11-03T19:14:31.378Z,14.23
2022-11-03T19:18:45.797Z,13.27
2022-11-03T19:23:06.632Z,14.45
2022-11-03T19:27:24.161Z,15.85
2022-11-03T19:31:44.009Z,16.02
2022-11-03T19:35:58.534Z,13.57
2022-11-03T19:40:20.605Z,13.95
2022-11-03T19:48:49.374Z,15.30
2022-11-03T19:53:06.231Z,13.60
2022-11-03T19:57:22.023Z,17.73
2022-11-03T20:01:38.957Z,15.23
2022-11-03T20:05:55.572Z,14.95
2022-11-03T20:10:17.057Z,18.83
2022-11-03T20:14:33.204Z,15.07
2022-11-03T20:18:48.318Z,19.53
2022-11-03T20:23:03.903Z,11.52
2022-11-03T20:27:20.983Z,16.90
2022-11-03T20:31:35.969Z,23.13
2022-11-03T20:35:50.859Z,19.20
2022-11-03T20:40:05.329Z,21.23
2022-11-03T20:44:19.518Z,18.10
2022-11-03T20:48:34.887Z,18.33
2022-11-03T20:52:49.570Z,18.90
2022-11-03T20:57:03.425Z,17.58
2022-11-03T21:01:19.857Z,17.23
2022-11-03T21:05:35.014Z,22.95
2022-11-03T21:09:48.683Z,18.65
2022-11-03T21:14:09.130Z,19.80
2022-11-03T21:18:40.266Z,19.73
2022-11-03T21:22:55.253Z,20.40
2022-11-03T21:27:12.124Z,18.93
2022-11-03T21:31:25.810Z,16.65
2022-11-03T21:35:42.242Z,22.73
2022-11-03T21:39:57.336Z,21.65
2022-11-03T21:44:16.793Z,21.93
2022-11-03T21:48:48.085Z,20.77
2022-11-03T21:53:01.736Z,19.77
2022-11-03T21:57:17.026Z,24.57
2022-11-03T22:01:30.953Z,21.50
2022-11-03T22:05:45.767Z,20.40
2022-11-03T22:10:19.491Z,22.20
2022-11-03T22:14:48.442Z,24.80
2022-11-03T22:19:22.086Z,23.98
2022-11-03T22:23:54.235Z,21.73
2022-11-03T22:28:14.116Z,23.20
2022-11-03T22:32:39.934Z,21.88
2022-11-03T22:36:53.654Z,25.38
2022-11-03T22:41:25.153Z,24.33
2022-11-03T22:45:55.227Z,21.38
2022-11-03T22:50:17.533Z,19.88
2022-11-03T22:54:34.002Z,19.73
2022-11-03T22:58:47.772Z,20.95
2022-11-03T23:03:13.282Z,20.42
2022-11-03T23:07:32.410Z,21.55
2022-11-03T23:11:47.605Z,21.17
2022-11-03T23:16:21.158Z,18.23
2022-11-03T23:20:55.895Z,20.30
2022-11-03T23:25:33.428Z,19.57
2022-11-03T23:29:47.696Z,19.67
2022-11-03T23:34:03.818Z,20.88
2022-11-03T23:38:17.498Z,19.60
2022-11-03T23:42:32.985Z,19.77
2022-11-03T23:47:07.146Z,22.23
2022-11-03T23:51:22.454Z,21.48
2022-11-03T23:55:57.955Z,21.70
